Time;durP1;ratioP1;P1;durP2;ratioP2;P2;SDS_P1;SDS_P2;PMS_P1;PMS_P2;Temp;Humidity;BMP_temperature;BMP_pressure;BME280_temperature;BME280_humidity;BME280_pressure;Samples;Min_cycle;Max_cycle;Signal;HPM_P1;HPM_P2
2021/08/10 00:00:12;;;;;;;4.18;3.20;;;;;;;;;;5037603;28;20035;-72
2021/08/10 00:02:57;;;;;;;4.85;3.47;;;;;;;;;;5033962;28;20106;-73
2021/08/10 00:05:48;;;;;;;7.20;3.20;;;;;;;;;;5024895;28;20082;-72
2021/08/10 00:08:33;;;;;;;3.87;3.00;;;;;;;;;;5036329;28;20111;-73
2021/08/10 00:11:18;;;;;;;5.47;3.30;;;;;;;;;;5024140;28;20701;-72
2021/08/10 00:14:03;;;;;;;4.75;3.55;;;;;;;;;;5043321;28;20093;-72
2021/08/10 00:16:47;;;;;;;3.85;3.00;;;;;;;;;;5041531;28;20051;-72
2021/08/10 00:19:32;;;;;;;4.47;3.28;;;;;;;;;;5043604;28;20043;-72
2021/08/10 00:22:16;;;;;;;4.00;3.00;;;;;;;;;;5039629;28;20113;-72
2021/08/10 00:25:01;;;;;;;5.38;3.08;;;;;;;;;;5034932;28;20512;-72
2021/08/10 00:27:45;;;;;;;6.03;3.15;;;;;;;;;;5040837;28;20039;-71
2021/08/10 00:30:30;;;;;;;5.63;3.30;;;;;;;;;;5008216;28;20060;-72
2021/08/10 00:33:14;;;;;;;4.80;3.08;;;;;;;;;;5028660;28;20098;-73
2021/08/10 00:35:59;;;;;;;3.95;2.95;;;;;;;;;;5031224;28;20043;-72
2021/08/10 00:38:44;;;;;;;6.15;3.28;;;;;;;;;;5039555;28;20044;-71
2021/08/10 00:41:28;;;;;;;4.80;3.03;;;;;;;;;;5043009;28;20036;-70
2021/08/10 00:44:13;;;;;;;5.15;3.20;;;;;;;;;;5042418;28;20045;-72
2021/08/10 00:46:57;;;;;;;3.75;2.90;;;;;;;;;;5025235;28;20087;-71
2021/08/10 00:49:41;;;;;;;3.97;2.85;;;;;;;;;;5042543;28;20052;-72
2021/08/10 00:52:26;;;;;;;4.13;3.05;;;;;;;;;;5046984;28;20060;-72
2021/08/10 00:55:11;;;;;;;4.47;2.80;;;;;;;;;;5043270;28;20069;-71
2021/08/10 00:57:56;;;;;;;5.55;3.08;;;;;;;;;;5040723;28;20112;-73
2021/08/10 01:00:41;;;;;;;4.53;2.83;;;;;;;;;;5025618;28;20141;-73
2021/08/10 01:03:25;;;;;;;6.32;2.92;;;;;;;;;;5035500;28;20565;-72
2021/08/10 01:06:17;;;;;;;3.67;2.92;;;;;;;;;;5040879;28;20090;-71
2021/08/10 01:09:09;;;;;;;3.38;2.85;;;;;;;;;;5038189;28;20307;-72
2021/08/10 01:12:02;;;;;;;4.93;3.38;;;;;;;;;;5025080;28;20051;-72
2021/08/10 01:14:47;;;;;;;3.72;2.83;;;;;;;;;;5041623;28;20071;-70
2021/08/10 01:17:44;;;;;;;3.45;2.78;;;;;;;;;;5038546;28;20052;-72
2021/08/10 01:20:31;;;;;;;5.35;3.10;;;;;;;;;;5040476;28;20095;-72
2021/08/10 01:23:15;;;;;;;4.53;2.80;;;;;;;;;;5039625;28;20514;-72
2021/08/10 01:26:19;;;;;;;3.83;2.58;;;;;;;;;;5039934;28;20032;-72
2021/08/10 01:29:07;;;;;;;4.55;3.00;;;;;;;;;;5037647;28;20043;-72
2021/08/10 01:31:52;;;;;;;4.95;2.90;;;;;;;;;;5041663;28;20130;-72
2021/08/10 01:34:57;;;;;;;4.00;2.55;;;;;;;;;;5040190;28;20036;-72
2021/08/10 01:37:42;;;;;;;4.25;2.60;;;;;;;;;;5041879;28;20098;-72
2021/08/10 01:40:27;;;;;;;2.92;2.45;;;;;;;;;;5027990;28;20043;-72
2021/08/10 01:43:12;;;;;;;5.88;3.30;;;;;;;;;;5047060;28;20039;-72
2021/08/10 01:45:57;;;;;;;3.83;2.67;;;;;;;;;;5010867;28;20040;-73
2021/08/10 01:48:41;;;;;;;4.25;2.80;;;;;;;;;;5018892;28;20071;-72
2021/08/10 01:51:29;;;;;;;4.60;2.60;;;;;;;;;;5039791;28;20060;-72
2021/08/10 01:54:14;;;;;;;3.55;2.67;;;;;;;;;;5046110;28;20536;-73
2021/08/10 01:56:59;;;;;;;4.20;2.88;;;;;;;;;;5045752;28;20047;-72
2021/08/10 01:59:45;;;;;;;4.13;2.55;;;;;;;;;;5025530;28;20040;-73
2021/08/10 02:02:30;;;;;;;5.35;2.97;;;;;;;;;;5058202;28;20043;-72
2021/08/10 02:05:15;;;;;;;2.75;2.53;;;;;;;;;;5030591;28;20115;-73
2021/08/10 02:08:00;;;;;;;5.28;2.65;;;;;;;;;;5048105;28;20112;-73
2021/08/10 02:10:44;;;;;;;4.00;2.80;;;;;;;;;;5045409;28;20639;-72
2021/08/10 02:13:29;;;;;;;4.93;2.80;;;;;;;;;;5046430;28;20047;-72
2021/08/10 02:16:14;;;;;;;4.38;3.05;;;;;;;;;;5041455;28;20547;-73
2021/08/10 02:18:58;;;;;;;4.22;2.65;;;;;;;;;;5047796;28;20036;-72
2021/08/10 02:22:03;;;;;;;4.82;3.20;;;;;;;;;;5042707;28;20532;-72
2021/08/10 02:24:48;;;;;;;3.80;2.50;;;;;;;;;;5060236;28;20087;-72
2021/08/10 02:27:35;;;;;;;3.80;2.80;;;;;;;;;;5043971;28;20036;-72
2021/08/10 02:30:22;;;;;;;3.33;2.85;;;;;;;;;;5046752;28;20527;-72
2021/08/10 02:33:07;;;;;;;4.25;2.67;;;;;;;;;;5044109;28;20525;-72
2021/08/10 02:35:56;;;;;;;5.65;2.70;;;;;;;;;;5048226;28;20234;-72
2021/08/10 02:38:42;;;;;;;4.32;2.60;;;;;;;;;;5032441;28;20040;-72
2021/08/10 02:41:26;;;;;;;6.10;2.65;;;;;;;;;;5030325;28;20556;-72
2021/08/10 02:44:11;;;;;;;3.92;3.20;;;;;;;;;;5028623;28;20839;-72
2021/08/10 02:46:55;;;;;;;5.28;2.75;;;;;;;;;;5046990;28;20040;-72
2021/08/10 02:49:40;;;;;;;3.28;2.60;;;;;;;;;;5029122;28;20048;-72
2021/08/10 02:52:25;;;;;;;5.97;2.97;;;;;;;;;;5046536;28;20055;-72
2021/08/10 02:55:09;;;;;;;3.25;2.72;;;;;;;;;;5033126;28;20489;-73
2021/08/10 02:57:54;;;;;;;9.73;2.92;;;;;;;;;;5051728;28;20060;-72
2021/08/10 03:00:59;;;;;;;4.63;2.55;;;;;;;;;;5034909;28;20179;-71
2021/08/10 03:03:44;;;;;;;3.38;2.50;;;;;;;;;;5051305;28;20047;-72
2021/08/10 03:06:29;;;;;;;5.05;2.90;;;;;;;;;;5033405;28;20616;-72
2021/08/10 03:09:14;;;;;;;4.90;2.65;;;;;;;;;;5046902;28;20044;-72
2021/08/10 03:11:58;;;;;;;3.80;2.97;;;;;;;;;;5030454;28;20047;-72
2021/08/10 03:14:43;;;;;;;4.63;2.72;;;;;;;;;;5045985;28;20075;-72
2021/08/10 03:17:28;;;;;;;3.60;2.70;;;;;;;;;;5047641;28;20071;-72
2021/08/10 03:20:13;;;;;;;5.10;2.92;;;;;;;;;;5035412;28;20040;-72
2021/08/10 03:22:58;;;;;;;5.43;2.70;;;;;;;;;;5038247;28;20047;-71
2021/08/10 03:25:43;;;;;;;4.80;2.97;;;;;;;;;;5045225;28;20035;-71
2021/08/10 03:28:29;;;;;;;4.82;2.95;;;;;;;;;;5046067;28;20036;-73
2021/08/10 03:31:13;;;;;;;3.65;2.72;;;;;;;;;;5027295;28;20088;-73
2021/08/10 03:33:58;;;;;;;5.47;3.30;;;;;;;;;;5044427;28;20032;-72
2021/08/10 03:36:42;;;;;;;3.45;2.83;;;;;;;;;;5043101;28;20082;-72
2021/08/10 03:39:27;;;;;;;4.93;3.13;;;;;;;;;;5047169;28;20116;-72
2021/08/10 03:42:13;;;;;;;4.65;2.75;;;;;;;;;;5044948;28;20568;-72
2021/08/10 03:44:57;;;;;;;6.70;3.40;;;;;;;;;;5026555;28;20040;-72
2021/08/10 03:47:42;;;;;;;5.65;3.00;;;;;;;;;;5022213;28;20512;-72
2021/08/10 03:50:27;;;;;;;4.97;3.25;;;;;;;;;;5045396;28;20134;-72
2021/08/10 03:53:11;;;;;;;4.10;3.03;;;;;;;;;;5031980;28;20114;-72
2021/08/10 03:55:56;;;;;;;3.67;2.90;;;;;;;;;;5032090;28;20460;-72
2021/08/10 03:58:41;;;;;;;5.35;3.08;;;;;;;;;;5046594;28;20151;-72
2021/08/10 04:01:25;;;;;;;6.32;3.50;;;;;;;;;;5046424;28;20460;-73
2021/08/10 04:04:11;;;;;;;4.53;3.13;;;;;;;;;;5025363;28;20068;-72
2021/08/10 04:06:55;;;;;;;4.43;3.15;;;;;;;;;;5038234;28;20457;-72
2021/08/10 04:09:39;;;;;;;4.65;2.95;;;;;;;;;;5047234;28;20039;-71
2021/08/10 04:12:24;;;;;;;5.72;3.30;;;;;;;;;;5045992;28;20083;-72
2021/08/10 04:15:09;;;;;;;4.88;3.20;;;;;;;;;;5020279;28;20059;-72
2021/08/10 04:17:53;;;;;;;4.90;3.05;;;;;;;;;;5034154;28;20131;-72
2021/08/10 04:20:38;;;;;;;4.18;3.25;;;;;;;;;;5030573;28;20040;-72
2021/08/10 04:23:23;;;;;;;5.13;3.42;;;;;;;;;;5046390;28;20035;-72
2021/08/10 04:26:07;;;;;;;4.38;3.28;;;;;;;;;;5038672;28;20056;-72
2021/08/10 04:28:51;;;;;;;4.63;3.60;;;;;;;;;;5026453;28;20039;-71
2021/08/10 04:31:36;;;;;;;6.45;3.22;;;;;;;;;;5043268;28;20063;-71
2021/08/10 04:34:21;;;;;;;4.68;3.15;;;;;;;;;;5035781;28;20114;-71
2021/08/10 04:37:05;;;;;;;4.18;3.50;;;;;;;;;;5043524;28;20043;-72
2021/08/10 04:39:50;;;;;;;6.90;3.63;;;;;;;;;;5042523;28;20136;-71
2021/08/10 04:42:35;;;;;;;5.13;3.60;;;;;;;;;;5046888;28;20040;-71
2021/08/10 04:45:20;;;;;;;4.75;3.55;;;;;;;;;;5037432;28;20047;-72
2021/08/10 04:48:04;;;;;;;6.18;3.85;;;;;;;;;;5041892;28;20122;-72
2021/08/10 04:50:49;;;;;;;6.05;3.72;;;;;;;;;;5034252;28;20635;-72
2021/08/10 04:53:34;;;;;;;5.93;3.80;;;;;;;;;;5034092;28;20044;-73
2021/08/10 04:56:18;;;;;;;4.60;3.65;;;;;;;;;;5040383;28;20040;-73
2021/08/10 04:59:03;;;;;;;6.15;4.05;;;;;;;;;;5042476;28;20078;-73
2021/08/10 05:01:47;;;;;;;6.05;4.20;;;;;;;;;;5044155;28;20065;-73
2021/08/10 05:04:32;;;;;;;7.50;4.40;;;;;;;;;;5036788;28;20220;-74
2021/08/10 05:07:16;;;;;;;6.60;4.00;;;;;;;;;;5040524;28;20086;-72
2021/08/10 05:10:02;;;;;;;10.80;5.03;;;;;;;;;;5031874;28;20043;-73
2021/08/10 05:12:46;;;;;;;7.28;4.68;;;;;;;;;;5043564;28;20060;-73
2021/08/10 05:15:31;;;;;;;9.45;4.75;;;;;;;;;;5040139;28;20071;-74
2021/08/10 05:18:16;;;;;;;8.00;4.80;;;;;;;;;;5017886;28;20055;-72
2021/08/10 05:21:00;;;;;;;7.65;4.53;;;;;;;;;;5038850;28;20051;-73
2021/08/10 05:23:45;;;;;;;9.40;5.07;;;;;;;;;;5033032;28;20087;-72
2021/08/10 05:26:29;;;;;;;12.07;5.38;;;;;;;;;;5027666;28;20047;-72
2021/08/10 05:29:14;;;;;;;7.03;4.93;;;;;;;;;;5041949;28;20078;-73
2021/08/10 05:31:59;;;;;;;8.65;5.00;;;;;;;;;;5043340;28;20127;-74
2021/08/10 05:34:43;;;;;;;6.15;4.63;;;;;;;;;;5043740;28;20044;-73
2021/08/10 05:37:28;;;;;;;8.02;5.10;;;;;;;;;;5031788;28;20062;-73
2021/08/10 05:40:13;;;;;;;7.68;4.95;;;;;;;;;;5044028;28;20075;-73
2021/08/10 05:42:57;;;;;;;8.02;4.65;;;;;;;;;;5039235;28;20102;-73
2021/08/10 05:45:42;;;;;;;7.47;5.22;;;;;;;;;;5044169;28;20109;-73
2021/08/10 05:48:29;;;;;;;8.45;5.25;;;;;;;;;;5042470;28;20052;-72
2021/08/10 05:51:13;;;;;;;7.40;4.78;;;;;;;;;;5043313;28;20051;-71
2021/08/10 05:53:58;;;;;;;8.13;4.90;;;;;;;;;;5031418;28;20044;-73
2021/08/10 05:56:42;;;;;;;7.28;4.78;;;;;;;;;;5044465;28;20075;-71
2021/08/10 05:59:26;;;;;;;7.68;5.45;;;;;;;;;;5029648;28;20044;-72
2021/08/10 06:02:11;;;;;;;8.02;4.82;;;;;;;;;;5045849;28;20144;-72
2021/08/10 06:04:56;;;;;;;10.00;5.20;;;;;;;;;;5035510;28;20083;-72
2021/08/10 06:07:40;;;;;;;8.13;5.30;;;;;;;;;;5025392;28;20066;-74
2021/08/10 06:10:26;;;;;;;8.10;4.90;;;;;;;;;;5044427;28;20114;-73
2021/08/10 06:13:11;;;;;;;7.97;4.78;;;;;;;;;;5043197;28;20079;-72
2021/08/10 06:15:55;;;;;;;7.65;5.15;;;;;;;;;;5046013;28;20126;-72
2021/08/10 06:18:40;;;;;;;8.18;5.18;;;;;;;;;;5029131;28;20461;-73
2021/08/10 06:21:24;;;;;;;6.88;4.63;;;;;;;;;;5043799;28;20043;-72
2021/08/10 06:24:09;;;;;;;8.02;4.95;;;;;;;;;;5029145;28;20113;-72
2021/08/10 06:26:54;;;;;;;7.63;5.20;;;;;;;;;;5030630;28;20035;-73
2021/08/10 06:29:39;;;;;;;6.45;4.80;;;;;;;;;;5029604;28;20061;-71
2021/08/10 06:32:23;;;;;;;8.90;4.70;;;;;;;;;;5044804;28;20067;-72
2021/08/10 06:35:08;;;;;;;7.22;4.78;;;;;;;;;;5043310;28;20067;-72
2021/08/10 06:37:53;;;;;;;6.97;4.82;;;;;;;;;;5041950;28;20083;-72
2021/08/10 06:40:38;;;;;;;7.90;4.63;;;;;;;;;;5044896;28;20083;-73
2021/08/10 06:43:22;;;;;;;8.07;5.30;;;;;;;;;;5043676;28;20044;-72
2021/08/10 06:46:07;;;;;;;7.97;5.03;;;;;;;;;;5039782;28;20516;-74
2021/08/10 06:48:51;;;;;;;8.90;5.32;;;;;;;;;;5038019;28;20763;-73
2021/08/10 06:51:36;;;;;;;7.93;5.18;;;;;;;;;;5028376;28;20351;-73
2021/08/10 06:54:21;;;;;;;9.82;5.63;;;;;;;;;;5042872;28;20075;-73
2021/08/10 06:57:06;;;;;;;9.20;5.20;;;;;;;;;;5041606;28;20126;-72
2021/08/10 06:59:51;;;;;;;6.97;4.63;;;;;;;;;;5042982;28;20040;-72
2021/08/10 07:02:35;;;;;;;8.70;6.03;;;;;;;;;;5042759;28;20044;-73
2021/08/10 07:05:20;;;;;;;7.80;5.53;;;;;;;;;;5038089;28;20071;-72
2021/08/10 07:08:05;;;;;;;9.00;5.50;;;;;;;;;;5039743;28;20051;-73
2021/08/10 07:10:49;;;;;;;8.13;5.30;;;;;;;;;;5042707;28;20571;-73
2021/08/10 07:13:34;;;;;;;7.85;5.18;;;;;;;;;;5029221;28;20035;-72
2021/08/10 07:16:18;;;;;;;9.13;4.63;;;;;;;;;;5041208;28;20044;-74
2021/08/10 07:19:03;;;;;;;8.00;4.82;;;;;;;;;;5041114;28;20052;-71
2021/08/10 07:21:47;;;;;;;6.47;4.60;;;;;;;;;;5040275;28;20068;-73
2021/08/10 07:24:32;;;;;;;6.80;4.78;;;;;;;;;;5039167;28;20048;-72
2021/08/10 07:27:16;;;;;;;7.82;5.07;;;;;;;;;;5043270;28;20032;-73
2021/08/10 07:30:01;;;;;;;8.90;4.78;;;;;;;;;;5042649;28;20058;-72
2021/08/10 07:32:46;;;;;;;7.70;4.82;;;;;;;;;;5028662;28;20048;-72
2021/08/10 07:35:30;;;;;;;7.30;5.00;;;;;;;;;;5042662;28;20087;-72
2021/08/10 07:38:15;;;;;;;8.63;5.20;;;;;;;;;;5021531;28;20768;-71
2021/08/10 07:41:00;;;;;;;7.32;4.47;;;;;;;;;;5023419;28;20426;-70
2021/08/10 07:43:44;;;;;;;6.72;4.75;;;;;;;;;;5026009;28;20802;-72
2021/08/10 07:46:30;;;;;;;6.28;4.47;;;;;;;;;;5024860;28;20035;-72
2021/08/10 07:49:14;;;;;;;7.90;4.93;;;;;;;;;;5037952;28;20039;-73
2021/08/10 07:51:59;;;;;;;6.32;4.70;;;;;;;;;;5028285;28;20413;-71
2021/08/10 07:54:44;;;;;;;6.15;4.28;;;;;;;;;;5037688;28;20068;-72
2021/08/10 07:57:28;;;;;;;6.25;4.50;;;;;;;;;;5013537;28;20036;-72
2021/08/10 08:00:13;;;;;;;6.45;4.55;;;;;;;;;;5028464;28;20087;-72
2021/08/10 08:02:58;;;;;;;7.13;4.40;;;;;;;;;;5031411;28;20072;-73
2021/08/10 08:05:43;;;;;;;6.22;4.45;;;;;;;;;;5030795;28;20040;-72
2021/08/10 08:08:30;;;;;;;6.93;4.35;;;;;;;;;;5033125;28;20078;-72
2021/08/10 08:11:14;;;;;;;6.05;4.05;;;;;;;;;;5029355;28;20127;-72
2021/08/10 08:13:59;;;;;;;7.68;4.28;;;;;;;;;;5033891;28;20048;-74
2021/08/10 08:16:43;;;;;;;6.18;4.10;;;;;;;;;;5039420;28;20091;-74
2021/08/10 08:19:29;;;;;;;9.95;4.40;;;;;;;;;;5029014;28;20043;-71
2021/08/10 08:22:14;;;;;;;5.32;3.95;;;;;;;;;;5027431;28;20098;-71
2021/08/10 08:24:58;;;;;;;5.63;3.83;;;;;;;;;;5039767;28;20436;-72
2021/08/10 08:27:43;;;;;;;7.05;4.35;;;;;;;;;;5032370;28;20152;-71
2021/08/10 08:30:28;;;;;;;5.72;4.00;;;;;;;;;;5037488;28;20107;-73
2021/08/10 08:33:12;;;;;;;5.10;3.65;;;;;;;;;;5038696;28;20410;-72
2021/08/10 08:35:57;;;;;;;5.70;4.03;;;;;;;;;;5035975;28;20048;-72
2021/08/10 08:38:41;;;;;;;7.15;4.20;;;;;;;;;;5035645;28;20091;-72
2021/08/10 08:41:26;;;;;;;5.60;3.95;;;;;;;;;;5035706;28;20488;-72
2021/08/10 08:44:10;;;;;;;6.00;3.80;;;;;;;;;;5045599;28;20102;-72
2021/08/10 08:46:55;;;;;;;4.50;3.50;;;;;;;;;;5037982;28;20039;-73
2021/08/10 08:49:39;;;;;;;7.78;3.88;;;;;;;;;;5039657;28;20088;-72
2021/08/10 08:52:24;;;;;;;5.20;4.03;;;;;;;;;;5029441;28;20063;-72
2021/08/10 08:55:09;;;;;;;6.13;4.03;;;;;;;;;;5029844;28;20035;-72
2021/08/10 08:57:53;;;;;;;6.03;4.00;;;;;;;;;;5027289;28;20469;-72
2021/08/10 09:00:38;;;;;;;4.78;3.75;;;;;;;;;;5032786;28;20538;-73
2021/08/10 09:03:23;;;;;;;6.22;4.07;;;;;;;;;;5052066;28;20569;-72
2021/08/10 09:06:08;;;;;;;4.97;3.63;;;;;;;;;;5050407;28;20796;-73
2021/08/10 09:08:55;;;;;;;5.22;3.95;;;;;;;;;;5042793;28;20086;-73
2021/08/10 09:11:40;;;;;;;4.82;3.35;;;;;;;;;;5052240;28;20064;-73
2021/08/10 09:14:25;;;;;;;5.10;3.22;;;;;;;;;;5057511;28;20798;-74
2021/08/10 09:17:09;;;;;;;6.03;3.72;;;;;;;;;;5036881;28;20075;-73
2021/08/10 09:20:03;;;;;;;4.30;3.67;;;;;;;;;;5032080;28;20729;-72
2021/08/10 09:22:51;;;;;;;5.80;3.80;;;;;;;;;;5043227;28;20079;-72
2021/08/10 09:25:35;;;;;;;5.00;3.50;;;;;;;;;;5041576;28;20469;-72
2021/08/10 09:28:20;;;;;;;6.82;3.83;;;;;;;;;;5047623;28;20044;-73
2021/08/10 09:31:24;;;;;;;6.10;3.80;;;;;;;;;;5053801;28;20107;-73
2021/08/10 09:34:30;;;;;;;5.25;3.90;;;;;;;;;;5039803;28;20567;-73
2021/08/10 09:37:15;;;;;;;6.45;3.90;;;;;;;;;;5040447;28;20072;-73
2021/08/10 09:40:00;;;;;;;4.78;3.60;;;;;;;;;;5039664;28;20748;-74
2021/08/10 09:42:44;;;;;;;5.55;4.05;;;;;;;;;;5044208;28;20097;-73
2021/08/10 09:45:29;;;;;;;5.82;3.83;;;;;;;;;;5038112;28;20047;-73
2021/08/10 09:48:17;;;;;;;7.03;4.03;;;;;;;;;;5030952;28;20091;-72
2021/08/10 09:51:22;;;;;;;5.63;4.00;;;;;;;;;;5031601;28;20051;-73
2021/08/10 09:54:14;;;;;;;4.75;3.83;;;;;;;;;;5027902;28;20040;-73
2021/08/10 09:57:01;;;;;;;6.00;3.92;;;;;;;;;;5046367;28;20508;-73
2021/08/10 09:59:46;;;;;;;5.72;3.95;;;;;;;;;;5045999;28;20448;-73
2021/08/10 10:02:30;;;;;;;5.68;4.20;;;;;;;;;;5024315;28;20134;-73
2021/08/10 10:05:15;;;;;;;5.03;4.00;;;;;;;;;;5043367;28;20044;-74
2021/08/10 10:08:18;;;;;;;6.38;4.50;;;;;;;;;;5026549;28;20048;-72
2021/08/10 10:11:03;;;;;;;8.68;5.07;;;;;;;;;;5043505;28;20449;-72
2021/08/10 10:13:48;;;;;;;6.63;4.65;;;;;;;;;;5039492;28;20596;-73
2021/08/10 10:16:32;;;;;;;6.13;4.78;;;;;;;;;;5040434;28;20072;-73
2021/08/10 10:19:18;;;;;;;5.95;4.25;;;;;;;;;;5030052;28;20144;-72
2021/08/10 10:22:03;;;;;;;5.97;4.40;;;;;;;;;;5032171;28;20113;-73
2021/08/10 10:24:49;;;;;;;6.78;4.53;;;;;;;;;;5034948;28;20043;-74
2021/08/10 10:27:36;;;;;;;6.18;4.35;;;;;;;;;;5063057;28;20055;-73
2021/08/10 10:30:21;;;;;;;5.38;4.40;;;;;;;;;;5026083;28;20083;-73
2021/08/10 10:33:05;;;;;;;6.68;4.38;;;;;;;;;;5031222;28;20040;-73
2021/08/10 10:35:50;;;;;;;4.95;4.40;;;;;;;;;;5031799;28;20076;-72
2021/08/10 10:38:34;;;;;;;6.25;4.35;;;;;;;;;;5044298;28;20043;-73
2021/08/10 10:41:19;;;;;;;6.38;4.72;;;;;;;;;;5033383;28;20040;-73
2021/08/10 10:44:06;;;;;;;6.70;4.93;;;;;;;;;;5032449;28;20044;-73
2021/08/10 10:46:51;;;;;;;7.15;5.00;;;;;;;;;;5048469;28;20063;-73
2021/08/10 10:49:36;;;;;;;5.45;4.65;;;;;;;;;;5046433;28;20043;-73
2021/08/10 10:52:20;;;;;;;5.47;4.47;;;;;;;;;;5048057;28;20044;-73
2021/08/10 10:55:05;;;;;;;8.32;5.32;;;;;;;;;;5051370;28;20040;-73
2021/08/10 10:57:50;;;;;;;8.50;6.15;;;;;;;;;;5038193;28;20044;-73
2021/08/10 11:00:34;;;;;;;6.97;5.32;;;;;;;;;;5033468;28;20056;-73
2021/08/10 11:03:19;;;;;;;7.32;5.03;;;;;;;;;;5030675;28;20048;-73
2021/08/10 11:06:22;;;;;;;5.45;4.68;;;;;;;;;;5023127;28;20044;-73
2021/08/10 11:09:07;;;;;;;8.63;6.25;;;;;;;;;;5038901;28;20099;-73
2021/08/10 11:11:52;;;;;;;7.72;5.43;;;;;;;;;;5040363;28;20141;-73
2021/08/10 11:14:37;;;;;;;7.00;5.80;;;;;;;;;;5030262;28;20298;-74
2021/08/10 11:17:21;;;;;;;7.03;5.82;;;;;;;;;;5055968;28;20055;-74
2021/08/10 11:20:25;;;;;;;5.80;4.45;;;;;;;;;;5028945;28;20035;-74
2021/08/10 11:26:09;;;;;;;6.20;5.15;;;;;;;;;;5045062;28;20591;-71
2021/08/10 11:28:53;;;;;;;6.93;4.70;;;;;;;;;;5052979;28;20078;-73
2021/08/10 11:31:41;;;;;;;6.75;5.25;;;;;;;;;;5031822;28;20055;-73
2021/08/10 11:34:29;;;;;;;6.05;5.22;;;;;;;;;;5043782;28;20040;-73
2021/08/10 11:37:18;;;;;;;6.13;4.43;;;;;;;;;;5048168;28;20132;-73
2021/08/10 11:40:07;;;;;;;6.75;4.90;;;;;;;;;;5046449;28;20039;-72
2021/08/10 11:42:52;;;;;;;6.93;5.13;;;;;;;;;;5030283;28;20044;-73
2021/08/10 11:45:37;;;;;;;6.78;5.03;;;;;;;;;;5026704;28;20124;-73
2021/08/10 11:48:23;;;;;;;6.47;5.15;;;;;;;;;;5029481;28;20040;-73
2021/08/10 11:51:26;;;;;;;6.53;4.82;;;;;;;;;;5035050;28;20047;-74
2021/08/10 11:54:24;;;;;;;9.27;5.32;;;;;;;;;;5065670;28;20043;-73
2021/08/10 11:57:13;;;;;;;7.38;4.93;;;;;;;;;;5063877;28;20614;-73
2021/08/10 12:00:13;;;;;;;6.97;4.90;;;;;;;;;;5056152;28;20044;-74
2021/08/10 12:02:58;;;;;;;6.75;4.95;;;;;;;;;;5026866;28;20089;-74
2021/08/10 12:05:43;;;;;;;5.82;5.15;;;;;;;;;;5035628;28;20086;-74
2021/08/10 12:08:27;;;;;;;9.05;5.45;;;;;;;;;;5024465;28;20564;-73
2021/08/10 12:11:12;;;;;;;6.78;4.88;;;;;;;;;;5059167;28;20076;-73
2021/08/10 12:14:07;;;;;;;5.75;4.65;;;;;;;;;;5056776;28;20036;-74
2021/08/10 12:16:56;;;;;;;6.10;4.68;;;;;;;;;;5042361;28;20048;-72
2021/08/10 12:19:44;;;;;;;6.10;4.55;;;;;;;;;;5034225;28;20051;-72
2021/08/10 12:22:30;;;;;;;6.22;4.07;;;;;;;;;;5047402;28;20052;-73
2021/08/10 12:25:15;;;;;;;5.57;4.60;;;;;;;;;;5041585;28;20051;-73
2021/08/10 12:28:03;;;;;;;6.75;4.53;;;;;;;;;;5042485;28;20525;-73
2021/08/10 12:30:48;;;;;;;6.43;4.07;;;;;;;;;;5047467;28;20059;-73
2021/08/10 12:33:33;;;;;;;5.43;4.20;;;;;;;;;;5041691;28;21031;-72
2021/08/10 12:36:18;;;;;;;4.53;3.92;;;;;;;;;;5023399;28;20040;-72
2021/08/10 12:39:03;;;;;;;4.80;3.90;;;;;;;;;;5037592;28;20095;-73
2021/08/10 12:41:47;;;;;;;5.55;4.07;;;;;;;;;;5023441;28;20556;-73
2021/08/10 12:44:32;;;;;;;5.65;4.20;;;;;;;;;;5046870;28;20170;-74
2021/08/10 12:47:17;;;;;;;4.95;3.50;;;;;;;;;;5048442;28;20056;-73
2021/08/10 12:50:02;;;;;;;5.07;3.83;;;;;;;;;;5032355;28;20136;-74
2021/08/10 12:52:47;;;;;;;4.57;3.65;;;;;;;;;;5023777;28;20555;-75
2021/08/10 12:55:51;;;;;;;5.80;3.63;;;;;;;;;;5025144;28;20040;-75
2021/08/10 12:58:52;;;;;;;4.25;3.47;;;;;;;;;;5048148;28;20048;-75
2021/08/10 13:01:43;;;;;;;4.75;3.65;;;;;;;;;;5053482;28;20103;-75
2021/08/10 13:04:28;;;;;;;4.93;3.90;;;;;;;;;;5023597;28;20052;-75
2021/08/10 13:07:15;;;;;;;5.38;3.65;;;;;;;;;;5040711;28;20090;-75
2021/08/10 13:10:00;;;;;;;4.68;3.53;;;;;;;;;;5023676;28;20521;-74
2021/08/10 13:12:55;;;;;;;6.53;3.97;;;;;;;;;;5042852;28;20060;-76
2021/08/10 13:15:43;;;;;;;5.03;3.80;;;;;;;;;;5044861;28;20040;-74
2021/08/10 13:18:32;;;;;;;5.07;3.65;;;;;;;;;;5055858;28;20040;-74
2021/08/10 13:21:21;;;;;;;4.55;3.67;;;;;;;;;;5052648;28;20520;-75
2021/08/10 13:24:06;;;;;;;7.80;4.10;;;;;;;;;;5035860;28;20827;-74
2021/08/10 13:26:51;;;;;;;4.07;3.55;;;;;;;;;;5042126;28;20040;-74
2021/08/10 13:29:37;;;;;;;4.13;3.20;;;;;;;;;;5041345;28;20099;-73
2021/08/10 13:32:22;;;;;;;4.57;3.58;;;;;;;;;;5050921;28;20102;-73
2021/08/10 13:35:07;;;;;;;4.85;3.40;;;;;;;;;;5045852;28;20460;-74
2021/08/10 13:37:52;;;;;;;5.90;3.83;;;;;;;;;;5036001;28;20048;-72
2021/08/10 13:40:36;;;;;;;4.93;3.55;;;;;;;;;;5049051;28;20040;-73
2021/08/10 13:43:21;;;;;;;4.30;3.40;;;;;;;;;;5024960;28;20083;-73
2021/08/10 13:46:06;;;;;;;6.38;3.33;;;;;;;;;;5059785;28;20466;-73
2021/08/10 13:48:51;;;;;;;5.03;3.30;;;;;;;;;;5049790;28;20078;-73
2021/08/10 13:51:36;;;;;;;4.75;3.42;;;;;;;;;;5064347;28;21082;-73
2021/08/10 13:54:20;;;;;;;5.25;3.40;;;;;;;;;;5047070;28;20102;-72
2021/08/10 13:57:05;;;;;;;3.53;3.22;;;;;;;;;;5033414;28;20036;-73
2021/08/10 13:59:50;;;;;;;4.78;3.38;;;;;;;;;;5047215;28;20048;-73
2021/08/10 14:02:37;;;;;;;4.28;3.70;;;;;;;;;;5045044;28;20039;-72
2021/08/10 14:05:22;;;;;;;4.95;3.17;;;;;;;;;;5052398;28;20040;-73
2021/08/10 14:08:07;;;;;;;4.25;3.35;;;;;;;;;;5049481;28;20040;-74
2021/08/10 14:10:51;;;;;;;4.75;3.50;;;;;;;;;;5046800;28;20484;-74
2021/08/10 14:13:36;;;;;;;3.85;3.10;;;;;;;;;;5029933;28;20067;-73
2021/08/10 14:16:21;;;;;;;5.05;3.50;;;;;;;;;;5042816;28;20040;-73
2021/08/10 14:19:06;;;;;;;4.30;3.00;;;;;;;;;;5029641;28;20120;-73
2021/08/10 14:21:50;;;;;;;5.32;3.28;;;;;;;;;;5044911;28;20090;-73
2021/08/10 14:24:35;;;;;;;3.95;3.45;;;;;;;;;;5036098;28;20087;-74
2021/08/10 14:27:20;;;;;;;4.88;3.40;;;;;;;;;;5048783;28;20044;-73
2021/08/10 14:30:05;;;;;;;3.53;3.17;;;;;;;;;;5042220;28;20047;-72
2021/08/10 14:32:49;;;;;;;3.50;2.83;;;;;;;;;;5029783;28;20047;-73
2021/08/10 14:35:34;;;;;;;3.80;3.08;;;;;;;;;;5031047;28;20035;-73
2021/08/10 14:38:19;;;;;;;4.78;3.03;;;;;;;;;;5037880;28;20044;-72
2021/08/10 14:41:04;;;;;;;4.05;3.00;;;;;;;;;;5031624;28;20474;-73
2021/08/10 14:43:49;;;;;;;4.65;2.90;;;;;;;;;;5048919;28;20550;-75
2021/08/10 14:46:33;;;;;;;5.60;3.42;;;;;;;;;;5041676;28;20099;-76
2021/08/10 14:49:18;;;;;;;6.68;3.17;;;;;;;;;;5043291;28;20075;-73
2021/08/10 14:52:05;;;;;;;4.10;2.97;;;;;;;;;;5049013;28;20132;-73
2021/08/10 14:54:50;;;;;;;5.03;3.10;;;;;;;;;;5029421;28;20506;-73
2021/08/10 14:57:34;;;;;;;3.10;2.72;;;;;;;;;;5022681;28;20648;-73
2021/08/10 15:00:19;;;;;;;3.28;2.85;;;;;;;;;;5043520;28;20787;-73
2021/08/10 15:03:04;;;;;;;3.22;2.83;;;;;;;;;;5065859;28;20039;-73
2021/08/10 15:05:48;;;;;;;3.65;2.88;;;;;;;;;;5025554;28;20599;-73
2021/08/10 15:08:33;;;;;;;3.83;3.10;;;;;;;;;;5050251;28;20040;-74
2021/08/10 15:11:17;;;;;;;3.47;3.08;;;;;;;;;;5030202;28;20469;-74
2021/08/10 15:14:02;;;;;;;4.00;3.03;;;;;;;;;;5026464;28;20120;-74
2021/08/10 15:16:46;;;;;;;3.03;2.67;;;;;;;;;;5018874;28;20525;-75
2021/08/10 15:19:31;;;;;;;4.93;3.30;;;;;;;;;;5030594;28;20082;-72
2021/08/10 15:22:16;;;;;;;3.70;3.08;;;;;;;;;;5033682;28;20071;-74
2021/08/10 15:25:00;;;;;;;4.78;3.08;;;;;;;;;;5044055;28;20073;-74
2021/08/10 15:27:45;;;;;;;4.13;2.95;;;;;;;;;;5023186;28;20834;-75
2021/08/10 15:30:29;;;;;;;3.92;2.85;;;;;;;;;;5034716;28;20048;-74
2021/08/10 15:33:14;;;;;;;3.30;2.72;;;;;;;;;;5018245;28;20056;-74
2021/08/10 15:35:59;;;;;;;3.88;2.78;;;;;;;;;;5043538;28;20452;-74
2021/08/10 15:38:43;;;;;;;3.72;2.70;;;;;;;;;;5032394;28;20036;-75
2021/08/10 15:41:28;;;;;;;4.10;3.10;;;;;;;;;;5048254;28;20046;-75
2021/08/10 15:44:15;;;;;;;3.20;2.72;;;;;;;;;;5050089;28;20094;-72
2021/08/10 15:47:00;;;;;;;3.40;2.72;;;;;;;;;;5059027;28;20039;-74
2021/08/10 15:49:46;;;;;;;4.40;2.83;;;;;;;;;;5045041;28;20075;-73
2021/08/10 15:52:31;;;;;;;4.07;2.80;;;;;;;;;;5054081;28;20158;-74
2021/08/10 15:55:15;;;;;;;3.75;2.78;;;;;;;;;;5028448;28;20039;-74
2021/08/10 15:58:00;;;;;;;4.28;2.70;;;;;;;;;;5050232;28;20121;-74
2021/08/10 16:00:45;;;;;;;5.20;2.67;;;;;;;;;;5044539;28;20113;-75
2021/08/10 16:03:29;;;;;;;3.60;2.70;;;;;;;;;;5036155;28;20083;-74
2021/08/10 16:06:14;;;;;;;3.00;2.65;;;;;;;;;;5043486;28;20071;-74
2021/08/10 16:08:59;;;;;;;4.22;2.85;;;;;;;;;;5046123;28;20107;-75
2021/08/10 16:11:44;;;;;;;3.70;2.60;;;;;;;;;;5025584;28;20131;-75
2021/08/10 16:14:29;;;;;;;3.67;2.70;;;;;;;;;;5038887;28;20559;-73
2021/08/10 16:17:16;;;;;;;3.53;2.50;;;;;;;;;;5057707;28;20040;-74
2021/08/10 16:20:01;;;;;;;3.40;2.58;;;;;;;;;;5045371;28;20559;-74
2021/08/10 16:22:46;;;;;;;3.92;2.60;;;;;;;;;;5047358;28;20072;-76
2021/08/10 16:25:31;;;;;;;3.45;2.60;;;;;;;;;;5030483;28;20040;-74
2021/08/10 16:28:16;;;;;;;3.10;2.60;;;;;;;;;;5049022;28;20069;-74
2021/08/10 16:31:00;;;;;;;3.20;2.50;;;;;;;;;;5025812;28;20125;-74
2021/08/10 16:33:45;;;;;;;3.22;2.60;;;;;;;;;;5050862;28;20493;-73
2021/08/10 16:36:29;;;;;;;2.85;2.50;;;;;;;;;;5042171;28;20098;-74